sensor_id;sensor_type;location;lat;lon;timestamp;P1;durP1;ratioP1;P2;durP2;ratioP2
78053;SDS011;67726;45.636;11.752;2023-03-07T00:02:22;110.78;;;52.67;;
78053;SDS011;67726;45.636;11.752;2023-03-07T00:04:47;111.30;;;49.87;;
78053;SDS011;67726;45.636;11.752;2023-03-07T00:07:13;105.53;;;50.13;;
78053;SDS011;67726;45.636;11.752;2023-03-07T00:09:39;112.63;;;50.43;;
78053;SDS011;67726;45.636;11.752;2023-03-07T00:12:05;113.35;;;51.20;;
78053;SDS011;67726;45.636;11.752;2023-03-07T00:14:32;114.60;;;51.08;;
78053;SDS011;67726;45.636;11.752;2023-03-07T00:16:58;114.03;;;52.20;;
78053;SDS011;67726;45.636;11.752;2023-03-07T00:19:23;114.25;;;53.15;;
78053;SDS011;67726;45.636;11.752;2023-03-07T00:21:49;101.97;;;48.27;;
78053;SDS011;67726;45.636;11.752;2023-03-07T00:24:14;101.63;;;47.33;;
78053;SDS011;67726;45.636;11.752;2023-03-07T00:26:40;100.60;;;47.63;;
78053;SDS011;67726;45.636;11.752;2023-03-07T00:29:06;106.80;;;48.83;;
78053;SDS011;67726;45.636;11.752;2023-03-07T00:31:33;103.33;;;48.73;;
78053;SDS011;67726;45.636;11.752;2023-03-07T00:33:59;101.20;;;47.63;;
78053;SDS011;67726;45.636;11.752;2023-03-07T00:36:25;101.40;;;48.15;;
78053;SDS011;67726;45.636;11.752;2023-03-07T00:38:51;105.60;;;46.70;;
78053;SDS011;67726;45.636;11.752;2023-03-07T00:41:21;104.97;;;47.95;;
78053;SDS011;67726;45.636;11.752;2023-03-07T00:43:49;98.85;;;47.40;;
78053;SDS011;67726;45.636;11.752;2023-03-07T00:46:15;100.25;;;46.08;;
78053;SDS011;67726;45.636;11.752;2023-03-07T00:48:43;97.10;;;46.23;;
78053;SDS011;67726;45.636;11.752;2023-03-07T00:51:10;104.45;;;46.80;;
78053;SDS011;67726;45.636;11.752;2023-03-07T00:53:37;110.10;;;47.78;;
78053;SDS011;67726;45.636;11.752;2023-03-07T00:56:05;99.90;;;46.28;;
78053;SDS011;67726;45.636;11.752;2023-03-07T00:58:36;104.28;;;45.20;;
78053;SDS011;67726;45.636;11.752;2023-03-07T01:01:03;97.03;;;45.00;;
78053;SDS011;67726;45.636;11.752;2023-03-07T01:03:30;99.25;;;46.25;;
78053;SDS011;67726;45.636;11.752;2023-03-07T01:05:56;100.93;;;46.40;;
78053;SDS011;67726;45.636;11.752;2023-03-07T01:08:25;101.68;;;47.60;;
78053;SDS011;67726;45.636;11.752;2023-03-07T01:10:51;97.77;;;44.10;;
78053;SDS011;67726;45.636;11.752;2023-03-07T01:13:17;99.40;;;45.85;;
78053;SDS011;67726;45.636;11.752;2023-03-07T01:15:44;114.20;;;48.07;;
78053;SDS011;67726;45.636;11.752;2023-03-07T01:18:10;107.88;;;47.63;;
78053;SDS011;67726;45.636;11.752;2023-03-07T01:20:36;104.18;;;50.13;;
78053;SDS011;67726;45.636;11.752;2023-03-07T01:23:03;101.27;;;47.37;;
78053;SDS011;67726;45.636;11.752;2023-03-07T01:25:29;93.93;;;46.10;;
78053;SDS011;67726;45.636;11.752;2023-03-07T01:27:56;99.35;;;47.20;;
78053;SDS011;67726;45.636;11.752;2023-03-07T01:30:24;114.57;;;48.60;;
78053;SDS011;67726;45.636;11.752;2023-03-07T01:32:54;93.30;;;45.97;;
78053;SDS011;67726;45.636;11.752;2023-03-07T01:35:20;89.30;;;44.13;;
78053;SDS011;67726;45.636;11.752;2023-03-07T01:37:47;103.03;;;46.38;;
78053;SDS011;67726;45.636;11.752;2023-03-07T01:40:13;90.13;;;44.93;;
78053;SDS011;67726;45.636;11.752;2023-03-07T01:42:39;102.80;;;46.83;;
78053;SDS011;67726;45.636;11.752;2023-03-07T01:47:51;93.40;;;43.25;;
78053;SDS011;67726;45.636;11.752;2023-03-07T01:50:17;99.00;;;45.07;;
78053;SDS011;67726;45.636;11.752;2023-03-07T01:52:46;102.63;;;47.15;;
78053;SDS011;67726;45.636;11.752;2023-03-07T01:55:18;92.63;;;45.70;;
78053;SDS011;67726;45.636;11.752;2023-03-07T01:57:48;91.40;;;43.83;;
78053;SDS011;67726;45.636;11.752;2023-03-07T02:00:17;100.25;;;47.13;;
78053;SDS011;67726;45.636;11.752;2023-03-07T02:02:50;93.25;;;45.28;;
78053;SDS011;67726;45.636;11.752;2023-03-07T02:05:36;95.07;;;45.28;;
78053;SDS011;67726;45.636;11.752;2023-03-07T02:08:06;99.32;;;46.30;;
78053;SDS011;67726;45.636;11.752;2023-03-07T02:10:34;101.53;;;45.20;;
78053;SDS011;67726;45.636;11.752;2023-03-07T02:13:01;94.60;;;44.40;;
78053;SDS011;67726;45.636;11.752;2023-03-07T02:15:28;99.28;;;45.10;;
78053;SDS011;67726;45.636;11.752;2023-03-07T02:17:53;99.93;;;45.47;;
78053;SDS011;67726;45.636;11.752;2023-03-07T02:22:51;103.00;;;47.30;;
78053;SDS011;67726;45.636;11.752;2023-03-07T02:25:31;108.60;;;49.05;;
78053;SDS011;67726;45.636;11.752;2023-03-07T02:28:14;105.50;;;47.60;;
78053;SDS011;67726;45.636;11.752;2023-03-07T02:33:19;99.90;;;46.70;;
78053;SDS011;67726;45.636;11.752;2023-03-07T02:35:48;110.78;;;48.17;;
78053;SDS011;67726;45.636;11.752;2023-03-07T02:38:22;108.97;;;47.95;;
78053;SDS011;67726;45.636;11.752;2023-03-07T02:40:49;105.78;;;47.40;;
78053;SDS011;67726;45.636;11.752;2023-03-07T02:43:17;102.43;;;47.67;;
78053;SDS011;67726;45.636;11.752;2023-03-07T02:45:44;100.90;;;46.33;;
78053;SDS011;67726;45.636;11.752;2023-03-07T02:48:10;103.80;;;46.80;;
78053;SDS011;67726;45.636;11.752;2023-03-07T02:50:36;97.13;;;46.17;;
78053;SDS011;67726;45.636;11.752;2023-03-07T02:53:02;101.22;;;45.70;;
78053;SDS011;67726;45.636;11.752;2023-03-07T02:55:28;102.70;;;44.33;;
78053;SDS011;67726;45.636;11.752;2023-03-07T02:57:53;95.80;;;44.60;;
78053;SDS011;67726;45.636;11.752;2023-03-07T03:00:19;91.73;;;44.33;;
78053;SDS011;67726;45.636;11.752;2023-03-07T03:02:45;91.83;;;44.93;;
78053;SDS011;67726;45.636;11.752;2023-03-07T03:05:11;95.60;;;43.63;;
78053;SDS011;67726;45.636;11.752;2023-03-07T03:07:37;109.97;;;47.60;;
78053;SDS011;67726;45.636;11.752;2023-03-07T03:10:03;93.37;;;44.87;;
78053;SDS011;67726;45.636;11.752;2023-03-07T03:12:29;99.32;;;45.70;;
78053;SDS011;67726;45.636;11.752;2023-03-07T03:14:54;117.78;;;48.08;;
78053;SDS011;67726;45.636;11.752;2023-03-07T03:17:20;101.77;;;45.57;;
78053;SDS011;67726;45.636;11.752;2023-03-07T03:19:46;97.97;;;44.67;;
78053;SDS011;67726;45.636;11.752;2023-03-07T03:22:11;100.57;;;45.07;;
78053;SDS011;67726;45.636;11.752;2023-03-07T03:24:38;100.40;;;45.43;;
78053;SDS011;67726;45.636;11.752;2023-03-07T03:27:07;97.10;;;42.15;;
78053;SDS011;67726;45.636;11.752;2023-03-07T03:29:33;99.80;;;45.75;;
78053;SDS011;67726;45.636;11.752;2023-03-07T03:31:59;100.00;;;43.55;;
78053;SDS011;67726;45.636;11.752;2023-03-07T03:34:25;95.03;;;43.70;;
78053;SDS011;67726;45.636;11.752;2023-03-07T03:36:51;94.78;;;41.72;;
78053;SDS011;67726;45.636;11.752;2023-03-07T03:39:17;107.30;;;45.22;;
78053;SDS011;67726;45.636;11.752;2023-03-07T03:41:42;102.03;;;47.03;;
78053;SDS011;67726;45.636;11.752;2023-03-07T03:44:08;101.18;;;44.80;;
78053;SDS011;67726;45.636;11.752;2023-03-07T03:46:34;94.50;;;43.13;;
78053;SDS011;67726;45.636;11.752;2023-03-07T03:49:00;93.53;;;42.05;;
78053;SDS011;67726;45.636;11.752;2023-03-07T03:51:26;92.95;;;42.90;;
78053;SDS011;67726;45.636;11.752;2023-03-07T03:53:52;98.72;;;43.72;;
78053;SDS011;67726;45.636;11.752;2023-03-07T03:56:19;98.73;;;43.73;;
78053;SDS011;67726;45.636;11.752;2023-03-07T03:58:48;98.28;;;44.47;;
78053;SDS011;67726;45.636;11.752;2023-03-07T04:01:15;101.75;;;45.95;;
78053;SDS011;67726;45.636;11.752;2023-03-07T04:03:46;99.72;;;42.22;;
78053;SDS011;67726;45.636;11.752;2023-03-07T04:06:17;93.90;;;43.80;;
78053;SDS011;67726;45.636;11.752;2023-03-07T04:08:45;108.60;;;43.57;;
78053;SDS011;67726;45.636;11.752;2023-03-07T04:11:11;99.22;;;46.10;;
78053;SDS011;67726;45.636;11.752;2023-03-07T04:13:36;95.40;;;43.95;;
78053;SDS011;67726;45.636;11.752;2023-03-07T04:16:03;92.57;;;39.75;;
78053;SDS011;67726;45.636;11.752;2023-03-07T04:18:29;95.97;;;43.33;;
78053;SDS011;67726;45.636;11.752;2023-03-07T04:20:55;96.27;;;42.17;;
78053;SDS011;67726;45.636;11.752;2023-03-07T04:23:22;94.00;;;42.63;;
78053;SDS011;67726;45.636;11.752;2023-03-07T04:25:49;83.40;;;40.50;;
78053;SDS011;67726;45.636;11.752;2023-03-07T04:28:16;98.25;;;43.92;;
78053;SDS011;67726;45.636;11.752;2023-03-07T04:30:42;101.90;;;43.10;;
78053;SDS011;67726;45.636;11.752;2023-03-07T04:33:09;95.43;;;40.22;;
78053;SDS011;67726;45.636;11.752;2023-03-07T04:35:34;90.38;;;42.45;;
78053;SDS011;67726;45.636;11.752;2023-03-07T04:38:00;96.97;;;43.70;;
78053;SDS011;67726;45.636;11.752;2023-03-07T04:40:26;91.90;;;42.08;;
78053;SDS011;67726;45.636;11.752;2023-03-07T04:42:51;99.10;;;44.23;;
78053;SDS011;67726;45.636;11.752;2023-03-07T04:45:17;99.88;;;43.58;;
78053;SDS011;67726;45.636;11.752;2023-03-07T04:47:43;100.47;;;41.63;;
78053;SDS011;67726;45.636;11.752;2023-03-07T04:50:09;100.95;;;45.65;;
78053;SDS011;67726;45.636;11.752;2023-03-07T04:52:35;87.93;;;38.20;;
78053;SDS011;67726;45.636;11.752;2023-03-07T04:55:00;94.78;;;41.13;;
78053;SDS011;67726;45.636;11.752;2023-03-07T04:57:26;103.68;;;43.38;;
78053;SDS011;67726;45.636;11.752;2023-03-07T04:59:52;99.67;;;43.23;;
78053;SDS011;67726;45.636;11.752;2023-03-07T05:02:17;91.05;;;42.50;;
78053;SDS011;67726;45.636;11.752;2023-03-07T05:04:43;95.13;;;43.00;;
78053;SDS011;67726;45.636;11.752;2023-03-07T05:07:09;91.77;;;41.87;;
78053;SDS011;67726;45.636;11.752;2023-03-07T05:09:34;92.25;;;40.50;;
78053;SDS011;67726;45.636;11.752;2023-03-07T05:12:00;97.27;;;46.37;;
78053;SDS011;67726;45.636;11.752;2023-03-07T05:14:26;114.07;;;51.33;;
78053;SDS011;67726;45.636;11.752;2023-03-07T05:16:51;103.90;;;46.27;;
78053;SDS011;67726;45.636;11.752;2023-03-07T05:19:17;98.75;;;45.78;;
78053;SDS011;67726;45.636;11.752;2023-03-07T05:21:43;102.57;;;47.50;;
78053;SDS011;67726;45.636;11.752;2023-03-07T05:24:09;102.78;;;45.88;;
78053;SDS011;67726;45.636;11.752;2023-03-07T05:26:35;108.40;;;45.70;;
78053;SDS011;67726;45.636;11.752;2023-03-07T05:29:01;96.90;;;44.63;;
78053;SDS011;67726;45.636;11.752;2023-03-07T05:31:27;96.05;;;44.67;;
78053;SDS011;67726;45.636;11.752;2023-03-07T05:33:53;99.83;;;45.63;;
78053;SDS011;67726;45.636;11.752;2023-03-07T05:36:18;100.97;;;42.22;;
78053;SDS011;67726;45.636;11.752;2023-03-07T05:38:44;100.50;;;45.05;;
78053;SDS011;67726;45.636;11.752;2023-03-07T05:41:10;101.83;;;43.87;;
78053;SDS011;67726;45.636;11.752;2023-03-07T05:43:36;96.65;;;42.00;;
78053;SDS011;67726;45.636;11.752;2023-03-07T05:46:02;100.50;;;45.23;;
78053;SDS011;67726;45.636;11.752;2023-03-07T05:48:28;95.47;;;45.22;;
78053;SDS011;67726;45.636;11.752;2023-03-07T05:50:53;106.17;;;45.03;;
78053;SDS011;67726;45.636;11.752;2023-03-07T05:53:22;97.53;;;44.78;;
78053;SDS011;67726;45.636;11.752;2023-03-07T05:55:48;98.32;;;45.80;;
78053;SDS011;67726;45.636;11.752;2023-03-07T05:58:13;97.03;;;42.93;;
78053;SDS011;67726;45.636;11.752;2023-03-07T06:00:39;99.43;;;45.57;;
78053;SDS011;67726;45.636;11.752;2023-03-07T06:03:04;94.30;;;41.97;;
78053;SDS011;67726;45.636;11.752;2023-03-07T06:05:30;117.13;;;47.67;;
78053;SDS011;67726;45.636;11.752;2023-03-07T06:07:56;104.50;;;46.78;;
78053;SDS011;67726;45.636;11.752;2023-03-07T06:10:21;103.27;;;46.80;;
78053;SDS011;67726;45.636;11.752;2023-03-07T06:12:53;101.68;;;44.35;;
78053;SDS011;67726;45.636;11.752;2023-03-07T06:15:19;95.93;;;43.17;;
78053;SDS011;67726;45.636;11.752;2023-03-07T06:17:46;103.28;;;43.75;;
78053;SDS011;67726;45.636;11.752;2023-03-07T06:20:11;96.00;;;43.42;;
78053;SDS011;67726;45.636;11.752;2023-03-07T06:22:37;100.30;;;44.67;;
78053;SDS011;67726;45.636;11.752;2023-03-07T06:25:04;110.85;;;48.17;;
78053;SDS011;67726;45.636;11.752;2023-03-07T06:27:31;105.32;;;44.15;;
78053;SDS011;67726;45.636;11.752;2023-03-07T06:29:58;101.15;;;46.88;;
78053;SDS011;67726;45.636;11.752;2023-03-07T06:32:24;87.10;;;41.07;;
78053;SDS011;67726;45.636;11.752;2023-03-07T06:34:49;98.43;;;43.90;;
78053;SDS011;67726;45.636;11.752;2023-03-07T06:37:15;90.10;;;41.75;;
78053;SDS011;67726;45.636;11.752;2023-03-07T06:39:41;90.87;;;43.77;;
78053;SDS011;67726;45.636;11.752;2023-03-07T06:42:07;89.70;;;41.20;;
78053;SDS011;67726;45.636;11.752;2023-03-07T06:44:33;88.90;;;42.08;;
78053;SDS011;67726;45.636;11.752;2023-03-07T06:46:59;87.03;;;39.78;;
78053;SDS011;67726;45.636;11.752;2023-03-07T06:49:24;88.73;;;41.37;;
78053;SDS011;67726;45.636;11.752;2023-03-07T06:51:50;85.35;;;41.38;;
78053;SDS011;67726;45.636;11.752;2023-03-07T06:54:15;82.60;;;39.43;;
78053;SDS011;67726;45.636;11.752;2023-03-07T06:56:41;88.82;;;41.50;;
78053;SDS011;67726;45.636;11.752;2023-03-07T06:59:07;97.07;;;41.83;;
78053;SDS011;67726;45.636;11.752;2023-03-07T07:01:32;82.63;;;40.08;;
78053;SDS011;67726;45.636;11.752;2023-03-07T07:03:59;84.27;;;40.13;;
78053;SDS011;67726;45.636;11.752;2023-03-07T07:06:26;80.78;;;40.80;;
78053;SDS011;67726;45.636;11.752;2023-03-07T07:08:53;82.00;;;40.22;;
78053;SDS011;67726;45.636;11.752;2023-03-07T07:11:22;82.27;;;39.23;;
78053;SDS011;67726;45.636;11.752;2023-03-07T07:13:49;82.35;;;39.03;;
78053;SDS011;67726;45.636;11.752;2023-03-07T07:16:15;84.47;;;39.58;;
78053;SDS011;67726;45.636;11.752;2023-03-07T07:18:41;86.77;;;37.83;;
78053;SDS011;67726;45.636;11.752;2023-03-07T07:21:08;82.57;;;37.38;;
78053;SDS011;67726;45.636;11.752;2023-03-07T07:23:34;78.38;;;38.20;;
78053;SDS011;67726;45.636;11.752;2023-03-07T07:25:59;76.10;;;37.10;;
78053;SDS011;67726;45.636;11.752;2023-03-07T07:28:25;81.30;;;37.10;;
78053;SDS011;67726;45.636;11.752;2023-03-07T07:30:51;79.32;;;37.20;;
78053;SDS011;67726;45.636;11.752;2023-03-07T07:33:17;72.10;;;37.15;;
78053;SDS011;67726;45.636;11.752;2023-03-07T07:35:43;79.33;;;35.93;;
78053;SDS011;67726;45.636;11.752;2023-03-07T07:38:09;72.35;;;34.88;;
78053;SDS011;67726;45.636;11.752;2023-03-07T07:40:35;68.03;;;34.88;;
78053;SDS011;67726;45.636;11.752;2023-03-07T07:43:01;67.03;;;35.35;;
78053;SDS011;67726;45.636;11.752;2023-03-07T07:45:27;70.80;;;33.43;;
78053;SDS011;67726;45.636;11.752;2023-03-07T07:47:52;67.37;;;33.77;;
78053;SDS011;67726;45.636;11.752;2023-03-07T07:50:19;69.57;;;33.30;;
78053;SDS011;67726;45.636;11.752;2023-03-07T07:52:45;66.25;;;33.55;;
78053;SDS011;67726;45.636;11.752;2023-03-07T07:55:12;68.60;;;32.07;;
78053;SDS011;67726;45.636;11.752;2023-03-07T07:57:38;62.13;;;31.00;;
78053;SDS011;67726;45.636;11.752;2023-03-07T08:00:08;65.20;;;32.15;;
78053;SDS011;67726;45.636;11.752;2023-03-07T08:02:36;66.68;;;32.03;;
78053;SDS011;67726;45.636;11.752;2023-03-07T08:05:04;67.65;;;32.25;;
78053;SDS011;67726;45.636;11.752;2023-03-07T08:07:31;60.10;;;32.47;;
78053;SDS011;67726;45.636;11.752;2023-03-07T08:09:57;65.65;;;32.70;;
78053;SDS011;67726;45.636;11.752;2023-03-07T08:12:23;61.67;;;30.90;;
78053;SDS011;67726;45.636;11.752;2023-03-07T08:14:48;64.28;;;32.67;;
78053;SDS011;67726;45.636;11.752;2023-03-07T08:17:14;62.03;;;31.37;;
78053;SDS011;67726;45.636;11.752;2023-03-07T08:19:39;60.60;;;30.98;;
78053;SDS011;67726;45.636;11.752;2023-03-07T08:22:05;61.60;;;29.87;;
78053;SDS011;67726;45.636;11.752;2023-03-07T08:24:31;55.73;;;30.40;;
78053;SDS011;67726;45.636;11.752;2023-03-07T08:26:59;59.00;;;30.30;;
78053;SDS011;67726;45.636;11.752;2023-03-07T08:29:25;58.17;;;29.38;;
78053;SDS011;67726;45.636;11.752;2023-03-07T08:31:50;55.80;;;28.42;;
78053;SDS011;67726;45.636;11.752;2023-03-07T08:34:18;57.33;;;29.48;;
78053;SDS011;67726;45.636;11.752;2023-03-07T08:36:44;57.27;;;30.40;;
78053;SDS011;67726;45.636;11.752;2023-03-07T08:39:10;59.17;;;31.45;;
78053;SDS011;67726;45.636;11.752;2023-03-07T08:41:36;57.88;;;30.98;;
78053;SDS011;67726;45.636;11.752;2023-03-07T08:44:02;57.40;;;29.88;;
78053;SDS011;67726;45.636;11.752;2023-03-07T08:46:28;56.53;;;31.13;;
78053;SDS011;67726;45.636;11.752;2023-03-07T08:48:53;57.42;;;30.05;;
78053;SDS011;67726;45.636;11.752;2023-03-07T08:51:19;59.13;;;29.33;;
78053;SDS011;67726;45.636;11.752;2023-03-07T08:53:45;60.97;;;29.35;;
78053;SDS011;67726;45.636;11.752;2023-03-07T08:56:12;56.20;;;29.47;;
78053;SDS011;67726;45.636;11.752;2023-03-07T08:58:40;57.60;;;28.98;;
78053;SDS011;67726;45.636;11.752;2023-03-07T09:01:07;52.72;;;29.15;;
78053;SDS011;67726;45.636;11.752;2023-03-07T09:03:33;57.85;;;28.83;;
78053;SDS011;67726;45.636;11.752;2023-03-07T09:06:00;52.15;;;29.35;;
78053;SDS011;67726;45.636;11.752;2023-03-07T09:08:26;56.57;;;30.00;;
78053;SDS011;67726;45.636;11.752;2023-03-07T09:10:51;57.13;;;29.33;;
78053;SDS011;67726;45.636;11.752;2023-03-07T09:13:17;67.85;;;31.75;;
78053;SDS011;67726;45.636;11.752;2023-03-07T09:15:43;53.30;;;29.37;;
78053;SDS011;67726;45.636;11.752;2023-03-07T09:18:09;54.20;;;28.08;;
78053;SDS011;67726;45.636;11.752;2023-03-07T09:20:38;54.88;;;27.95;;
78053;SDS011;67726;45.636;11.752;2023-03-07T09:23:05;54.00;;;26.52;;
78053;SDS011;67726;45.636;11.752;2023-03-07T09:25:31;51.00;;;26.43;;
78053;SDS011;67726;45.636;11.752;2023-03-07T09:27:57;54.67;;;27.15;;
78053;SDS011;67726;45.636;11.752;2023-03-07T09:30:23;52.57;;;26.53;;
78053;SDS011;67726;45.636;11.752;2023-03-07T09:32:49;53.67;;;26.90;;
78053;SDS011;67726;45.636;11.752;2023-03-07T09:35:16;50.83;;;26.77;;
78053;SDS011;67726;45.636;11.752;2023-03-07T09:37:42;46.97;;;25.00;;
78053;SDS011;67726;45.636;11.752;2023-03-07T09:40:14;44.40;;;23.90;;
78053;SDS011;67726;45.636;11.752;2023-03-07T09:42:53;48.85;;;26.80;;
78053;SDS011;67726;45.636;11.752;2023-03-07T09:45:27;43.67;;;24.23;;
78053;SDS011;67726;45.636;11.752;2023-03-07T09:50:54;42.10;;;22.95;;
78053;SDS011;67726;45.636;11.752;2023-03-07T09:53:37;49.23;;;25.43;;
78053;SDS011;67726;45.636;11.752;2023-03-07T09:59:16;54.70;;;27.83;;
78053;SDS011;67726;45.636;11.752;2023-03-07T10:01:53;51.28;;;27.08;;
78053;SDS011;67726;45.636;11.752;2023-03-07T10:04:48;48.60;;;25.55;;
78053;SDS011;67726;45.636;11.752;2023-03-07T10:07:21;48.47;;;25.77;;
78053;SDS011;67726;45.636;11.752;2023-03-07T10:09:50;45.25;;;25.20;;
78053;SDS011;67726;45.636;11.752;2023-03-07T10:20:12;48.40;;;24.90;;
78053;SDS011;67726;45.636;11.752;2023-03-07T10:26:43;48.42;;;26.73;;
78053;SDS011;67726;45.636;11.752;2023-03-07T10:28:40;48.88;;;27.55;;
78053;SDS011;67726;45.636;11.752;2023-03-07T10:31:15;51.50;;;27.65;;
78053;SDS011;67726;45.636;11.752;2023-03-07T10:33:47;53.67;;;28.80;;
78053;SDS011;67726;45.636;11.752;2023-03-07T10:36:20;48.00;;;28.40;;
78053;SDS011;67726;45.636;11.752;2023-03-07T10:38:59;51.17;;;28.00;;
78053;SDS011;67726;45.636;11.752;2023-03-07T10:41:37;50.00;;;27.20;;
78053;SDS011;67726;45.636;11.752;2023-03-07T10:44:02;52.80;;;28.60;;
78053;SDS011;67726;45.636;11.752;2023-03-07T10:46:28;49.55;;;26.58;;
78053;SDS011;67726;45.636;11.752;2023-03-07T10:54:51;51.47;;;27.17;;
78053;SDS011;67726;45.636;11.752;2023-03-07T10:57:19;43.40;;;25.98;;
78053;SDS011;67726;45.636;11.752;2023-03-07T11:04:58;52.58;;;27.15;;
78053;SDS011;67726;45.636;11.752;2023-03-07T11:07:25;52.38;;;29.90;;
78053;SDS011;67726;45.636;11.752;2023-03-07T11:10:00;48.67;;;28.40;;
78053;SDS011;67726;45.636;11.752;2023-03-07T11:12:46;49.30;;;29.83;;
78053;SDS011;67726;45.636;11.752;2023-03-07T11:15:19;51.57;;;28.77;;
78053;SDS011;67726;45.636;11.752;2023-03-07T11:17:48;52.25;;;29.58;;
78053;SDS011;67726;45.636;11.752;2023-03-07T11:20:28;50.25;;;26.88;;
78053;SDS011;67726;45.636;11.752;2023-03-07T11:23:22;47.53;;;25.52;;
78053;SDS011;67726;45.636;11.752;2023-03-07T11:25:53;46.30;;;26.65;;
78053;SDS011;67726;45.636;11.752;2023-03-07T11:28:30;47.07;;;26.00;;
78053;SDS011;67726;45.636;11.752;2023-03-07T11:36:27;46.10;;;24.75;;
78053;SDS011;67726;45.636;11.752;2023-03-07T11:41:35;46.83;;;24.87;;
78053;SDS011;67726;45.636;11.752;2023-03-07T11:46:59;50.83;;;25.63;;
78053;SDS011;67726;45.636;11.752;2023-03-07T11:49:58;49.72;;;28.83;;
78053;SDS011;67726;45.636;11.752;2023-03-07T11:55:33;48.90;;;26.30;;
78053;SDS011;67726;45.636;11.752;2023-03-07T12:11:19;52.63;;;29.92;;
78053;SDS011;67726;45.636;11.752;2023-03-07T12:16:26;50.08;;;27.85;;
78053;SDS011;67726;45.636;11.752;2023-03-07T12:24:58;49.85;;;26.73;;
78053;SDS011;67726;45.636;11.752;2023-03-07T12:27:38;51.08;;;27.33;;
78053;SDS011;67726;45.636;11.752;2023-03-07T12:30:26;46.97;;;26.70;;
78053;SDS011;67726;45.636;11.752;2023-03-07T12:33:08;51.25;;;26.77;;
78053;SDS011;67726;45.636;11.752;2023-03-07T12:35:50;45.05;;;25.33;;
78053;SDS011;67726;45.636;11.752;2023-03-07T12:38:25;49.38;;;26.88;;
78053;SDS011;67726;45.636;11.752;2023-03-07T12:43:56;51.93;;;28.07;;
78053;SDS011;67726;45.636;11.752;2023-03-07T12:52:04;40.40;;;21.40;;
78053;SDS011;67726;45.636;11.752;2023-03-07T12:54:36;38.72;;;20.70;;
78053;SDS011;67726;45.636;11.752;2023-03-07T12:59:39;37.33;;;20.92;;
78053;SDS011;67726;45.636;11.752;2023-03-07T13:04:39;37.83;;;20.08;;
78053;SDS011;67726;45.636;11.752;2023-03-07T13:07:09;30.77;;;16.38;;
78053;SDS011;67726;45.636;11.752;2023-03-07T13:09:43;34.00;;;17.30;;
78053;SDS011;67726;45.636;11.752;2023-03-07T13:14:55;34.13;;;18.33;;
78053;SDS011;67726;45.636;11.752;2023-03-07T13:19:54;33.65;;;17.70;;
78053;SDS011;67726;45.636;11.752;2023-03-07T13:24:51;33.33;;;17.50;;
78053;SDS011;67726;45.636;11.752;2023-03-07T13:27:28;33.55;;;16.73;;
78053;SDS011;67726;45.636;11.752;2023-03-07T13:32:53;27.98;;;14.35;;
78053;SDS011;67726;45.636;11.752;2023-03-07T13:38:01;29.38;;;14.77;;
78053;SDS011;67726;45.636;11.752;2023-03-07T13:41:41;28.05;;;13.50;;
78053;SDS011;67726;45.636;11.752;2023-03-07T13:44:03;28.73;;;13.47;;
78053;SDS011;67726;45.636;11.752;2023-03-07T13:49:06;26.17;;;12.38;;
78053;SDS011;67726;45.636;11.752;2023-03-07T13:51:32;23.70;;;11.37;;
78053;SDS011;67726;45.636;11.752;2023-03-07T13:54:01;25.83;;;12.15;;
78053;SDS011;67726;45.636;11.752;2023-03-07T13:56:29;23.23;;;12.88;;
78053;SDS011;67726;45.636;11.752;2023-03-07T14:04:23;28.45;;;12.45;;
78053;SDS011;67726;45.636;11.752;2023-03-07T14:06:53;26.83;;;12.82;;
78053;SDS011;67726;45.636;11.752;2023-03-07T14:09:29;25.27;;;12.00;;
78053;SDS011;67726;45.636;11.752;2023-03-07T14:12:21;24.83;;;12.03;;
78053;SDS011;67726;45.636;11.752;2023-03-07T14:20:51;20.27;;;9.85;;
78053;SDS011;67726;45.636;11.752;2023-03-07T14:26:15;25.33;;;11.17;;
78053;SDS011;67726;45.636;11.752;2023-03-07T14:31:35;29.23;;;11.75;;
78053;SDS011;67726;45.636;11.752;2023-03-07T14:34:25;21.43;;;10.63;;
78053;SDS011;67726;45.636;11.752;2023-03-07T14:36:50;24.08;;;10.18;;
78053;SDS011;67726;45.636;11.752;2023-03-07T14:39:19;27.67;;;12.00;;
78053;SDS011;67726;45.636;11.752;2023-03-07T14:44:49;22.20;;;9.45;;
78053;SDS011;67726;45.636;11.752;2023-03-07T14:50:27;24.55;;;12.25;;
78053;SDS011;67726;45.636;11.752;2023-03-07T14:53:05;22.27;;;8.88;;
78053;SDS011;67726;45.636;11.752;2023-03-07T14:55:38;24.10;;;10.13;;
78053;SDS011;67726;45.636;11.752;2023-03-07T14:58:05;20.80;;;9.25;;
78053;SDS011;67726;45.636;11.752;2023-03-07T15:00:32;21.73;;;10.07;;
78053;SDS011;67726;45.636;11.752;2023-03-07T15:03:07;24.60;;;10.18;;
78053;SDS011;67726;45.636;11.752;2023-03-07T15:05:49;23.45;;;11.55;;
78053;SDS011;67726;45.636;11.752;2023-03-07T15:08:35;22.55;;;10.30;;
78053;SDS011;67726;45.636;11.752;2023-03-07T15:16:11;22.38;;;9.20;;
78053;SDS011;67726;45.636;11.752;2023-03-07T15:18:48;31.02;;;10.55;;
78053;SDS011;67726;45.636;11.752;2023-03-07T15:21:20;20.40;;;10.32;;
78053;SDS011;67726;45.636;11.752;2023-03-07T15:23:53;26.27;;;10.93;;
78053;SDS011;67726;45.636;11.752;2023-03-07T15:26:24;20.00;;;10.03;;
78053;SDS011;67726;45.636;11.752;2023-03-07T15:29:05;19.00;;;10.57;;
78053;SDS011;67726;45.636;11.752;2023-03-07T15:31:49;23.38;;;9.52;;
78053;SDS011;67726;45.636;11.752;2023-03-07T15:34:34;23.05;;;9.27;;
78053;SDS011;67726;45.636;11.752;2023-03-07T15:37:23;23.70;;;9.95;;
78053;SDS011;67726;45.636;11.752;2023-03-07T15:40:02;24.00;;;10.13;;
78053;SDS011;67726;45.636;11.752;2023-03-07T15:42:54;21.50;;;8.68;;
78053;SDS011;67726;45.636;11.752;2023-03-07T15:45:40;23.13;;;9.55;;
78053;SDS011;67726;45.636;11.752;2023-03-07T15:48:13;22.50;;;10.30;;
78053;SDS011;67726;45.636;11.752;2023-03-07T15:50:58;24.65;;;9.70;;
78053;SDS011;67726;45.636;11.752;2023-03-07T15:53:27;24.47;;;9.77;;
78053;SDS011;67726;45.636;11.752;2023-03-07T15:55:56;20.45;;;9.40;;
78053;SDS011;67726;45.636;11.752;2023-03-07T15:58:32;24.48;;;9.90;;
78053;SDS011;67726;45.636;11.752;2023-03-07T16:01:16;18.92;;;9.27;;
78053;SDS011;67726;45.636;11.752;2023-03-07T16:03:52;21.00;;;8.68;;
78053;SDS011;67726;45.636;11.752;2023-03-07T16:06:52;18.10;;;8.40;;
78053;SDS011;67726;45.636;11.752;2023-03-07T16:09:12;24.48;;;9.43;;
78053;SDS011;67726;45.636;11.752;2023-03-07T16:11:39;23.00;;;12.15;;
78053;SDS011;67726;45.636;11.752;2023-03-07T16:14:11;21.25;;;9.27;;
78053;SDS011;67726;45.636;11.752;2023-03-07T16:16:50;21.58;;;9.82;;
78053;SDS011;67726;45.636;11.752;2023-03-07T16:19:20;22.77;;;10.07;;
78053;SDS011;67726;45.636;11.752;2023-03-07T16:21:45;27.50;;;9.90;;
78053;SDS011;67726;45.636;11.752;2023-03-07T16:24:11;20.90;;;9.90;;
78053;SDS011;67726;45.636;11.752;2023-03-07T16:26:37;20.15;;;10.00;;
78053;SDS011;67726;45.636;11.752;2023-03-07T16:29:03;26.38;;;10.20;;